sensor_id;sensor_type;location;lat;lon;timestamp;P1;durP1;ratioP1;P2;durP2;ratioP2
80123;SDS011;69433;48.642;9.142;2023-12-14T00:04:13;10.57;;;5.93;;
80123;SDS011;69433;48.642;9.142;2023-12-14T00:06:38;11.65;;;6.28;;
80123;SDS011;69433;48.642;9.142;2023-12-14T00:09:06;10.90;;;5.63;;
80123;SDS011;69433;48.642;9.142;2023-12-14T00:14:23;10.05;;;5.90;;
80123;SDS011;69433;48.642;9.142;2023-12-14T00:16:56;8.85;;;5.72;;
80123;SDS011;69433;48.642;9.142;2023-12-14T00:19:27;10.25;;;5.53;;
80123;SDS011;69433;48.642;9.142;2023-12-14T00:21:52;11.18;;;6.15;;
80123;SDS011;69433;48.642;9.142;2023-12-14T00:24:17;9.75;;;5.93;;
80123;SDS011;69433;48.642;9.142;2023-12-14T00:26:43;9.27;;;5.35;;
80123;SDS011;69433;48.642;9.142;2023-12-14T00:29:08;9.48;;;5.28;;
80123;SDS011;69433;48.642;9.142;2023-12-14T00:31:33;7.95;;;5.15;;
80123;SDS011;69433;48.642;9.142;2023-12-14T00:34:10;8.65;;;5.25;;
80123;SDS011;69433;48.642;9.142;2023-12-14T00:42:28;8.77;;;5.15;;
80123;SDS011;69433;48.642;9.142;2023-12-14T00:44:56;8.00;;;5.25;;
80123;SDS011;69433;48.642;9.142;2023-12-14T00:53:10;8.57;;;5.60;;
80123;SDS011;69433;48.642;9.142;2023-12-14T00:55:39;8.52;;;4.57;;
80123;SDS011;69433;48.642;9.142;2023-12-14T01:01:28;8.88;;;5.40;;
80123;SDS011;69433;48.642;9.142;2023-12-14T01:04:03;7.47;;;4.55;;
80123;SDS011;69433;48.642;9.142;2023-12-14T01:09:31;7.18;;;4.43;;
80123;SDS011;69433;48.642;9.142;2023-12-14T01:15:07;7.82;;;4.60;;
80123;SDS011;69433;48.642;9.142;2023-12-14T01:17:52;7.53;;;4.45;;
80123;SDS011;69433;48.642;9.142;2023-12-14T01:20:30;6.82;;;4.57;;
80123;SDS011;69433;48.642;9.142;2023-12-14T01:29:27;9.00;;;4.50;;
80123;SDS011;69433;48.642;9.142;2023-12-14T01:31:52;9.00;;;4.28;;
80123;SDS011;69433;48.642;9.142;2023-12-14T01:37:07;6.35;;;3.92;;
80123;SDS011;69433;48.642;9.142;2023-12-14T01:39:33;7.25;;;4.25;;
80123;SDS011;69433;48.642;9.142;2023-12-14T01:42:08;6.10;;;3.85;;
80123;SDS011;69433;48.642;9.142;2023-12-14T01:44:34;7.35;;;4.10;;
80123;SDS011;69433;48.642;9.142;2023-12-14T01:47:00;8.77;;;4.30;;
80123;SDS011;69433;48.642;9.142;2023-12-14T01:49:35;6.85;;;4.10;;
80123;SDS011;69433;48.642;9.142;2023-12-14T01:52:01;7.47;;;4.20;;
80123;SDS011;69433;48.642;9.142;2023-12-14T01:54:26;5.60;;;3.75;;
80123;SDS011;69433;48.642;9.142;2023-12-14T01:56:51;6.07;;;4.30;;
80123;SDS011;69433;48.642;9.142;2023-12-14T01:59:30;8.25;;;4.15;;
80123;SDS011;69433;48.642;9.142;2023-12-14T02:01:56;5.78;;;4.00;;
80123;SDS011;69433;48.642;9.142;2023-12-14T02:07:07;6.65;;;3.92;;
80123;SDS011;69433;48.642;9.142;2023-12-14T02:09:46;6.03;;;3.85;;
80123;SDS011;69433;48.642;9.142;2023-12-14T02:12:11;5.95;;;3.67;;
80123;SDS011;69433;48.642;9.142;2023-12-14T02:14:37;6.25;;;4.05;;
80123;SDS011;69433;48.642;9.142;2023-12-14T02:17:08;6.07;;;3.35;;
80123;SDS011;69433;48.642;9.142;2023-12-14T02:19:46;6.88;;;4.10;;
80123;SDS011;69433;48.642;9.142;2023-12-14T02:22:22;5.55;;;3.63;;
80123;SDS011;69433;48.642;9.142;2023-12-14T02:24:47;5.68;;;3.30;;
80123;SDS011;69433;48.642;9.142;2023-12-14T02:27:12;5.45;;;3.80;;
80123;SDS011;69433;48.642;9.142;2023-12-14T02:32:13;5.55;;;3.70;;
80123;SDS011;69433;48.642;9.142;2023-12-14T02:37:40;5.80;;;3.50;;
80123;SDS011;69433;48.642;9.142;2023-12-14T02:42:51;6.28;;;3.60;;
80123;SDS011;69433;48.642;9.142;2023-12-14T02:45:23;5.85;;;3.13;;
80123;SDS011;69433;48.642;9.142;2023-12-14T02:48:03;6.32;;;3.50;;
80123;SDS011;69433;48.642;9.142;2023-12-14T02:50:44;5.47;;;3.25;;
80123;SDS011;69433;48.642;9.142;2023-12-14T02:55:54;5.93;;;3.33;;
80123;SDS011;69433;48.642;9.142;2023-12-14T03:03:49;5.10;;;3.33;;
80123;SDS011;69433;48.642;9.142;2023-12-14T03:09:02;5.40;;;3.60;;
80123;SDS011;69433;48.642;9.142;2023-12-14T03:11:38;5.30;;;3.25;;
80123;SDS011;69433;48.642;9.142;2023-12-14T03:14:06;5.20;;;3.13;;
80123;SDS011;69433;48.642;9.142;2023-12-14T03:16:31;5.60;;;3.25;;
80123;SDS011;69433;48.642;9.142;2023-12-14T03:21:58;5.53;;;3.30;;
80123;SDS011;69433;48.642;9.142;2023-12-14T03:24:25;5.18;;;3.17;;
80123;SDS011;69433;48.642;9.142;2023-12-14T03:26:51;5.35;;;3.10;;
80123;SDS011;69433;48.642;9.142;2023-12-14T03:31:50;5.40;;;3.28;;
80123;SDS011;69433;48.642;9.142;2023-12-14T03:36:53;6.13;;;3.15;;
80123;SDS011;69433;48.642;9.142;2023-12-14T03:41:50;4.85;;;2.92;;
80123;SDS011;69433;48.642;9.142;2023-12-14T03:47:07;5.20;;;3.05;;
80123;SDS011;69433;48.642;9.142;2023-12-14T03:49:37;5.28;;;2.90;;
80123;SDS011;69433;48.642;9.142;2023-12-14T03:54:53;4.18;;;2.55;;
80123;SDS011;69433;48.642;9.142;2023-12-14T04:00:20;4.03;;;2.53;;
80123;SDS011;69433;48.642;9.142;2023-12-14T04:02:56;5.20;;;2.83;;
80123;SDS011;69433;48.642;9.142;2023-12-14T04:07:49;4.45;;;2.50;;
80123;SDS011;69433;48.642;9.142;2023-12-14T04:10:14;3.80;;;2.58;;
80123;SDS011;69433;48.642;9.142;2023-12-14T04:15:38;3.60;;;2.45;;
80123;SDS011;69433;48.642;9.142;2023-12-14T04:18:04;4.75;;;2.67;;
80123;SDS011;69433;48.642;9.142;2023-12-14T04:20:34;3.88;;;2.33;;
80123;SDS011;69433;48.642;9.142;2023-12-14T04:26:20;4.28;;;2.40;;
80123;SDS011;69433;48.642;9.142;2023-12-14T04:28:55;3.53;;;2.30;;
80123;SDS011;69433;48.642;9.142;2023-12-14T04:31:26;5.57;;;2.63;;
80123;SDS011;69433;48.642;9.142;2023-12-14T04:36:35;3.42;;;2.17;;
80123;SDS011;69433;48.642;9.142;2023-12-14T04:42:03;3.72;;;2.22;;
80123;SDS011;69433;48.642;9.142;2023-12-14T04:44:29;5.60;;;2.58;;
80123;SDS011;69433;48.642;9.142;2023-12-14T04:46:55;3.92;;;2.17;;
80123;SDS011;69433;48.642;9.142;2023-12-14T04:49:22;3.60;;;2.28;;
80123;SDS011;69433;48.642;9.142;2023-12-14T04:51:47;3.40;;;2.40;;
80123;SDS011;69433;48.642;9.142;2023-12-14T05:02:45;4.05;;;2.10;;
80123;SDS011;69433;48.642;9.142;2023-12-14T05:05:12;2.92;;;1.83;;
80123;SDS011;69433;48.642;9.142;2023-12-14T05:07:37;4.88;;;1.83;;
80123;SDS011;69433;48.642;9.142;2023-12-14T05:12:56;3.45;;;2.10;;
80123;SDS011;69433;48.642;9.142;2023-12-14T05:15:21;3.53;;;2.10;;
80123;SDS011;69433;48.642;9.142;2023-12-14T05:17:56;5.18;;;1.80;;
80123;SDS011;69433;48.642;9.142;2023-12-14T05:26:31;3.63;;;2.13;;
80123;SDS011;69433;48.642;9.142;2023-12-14T05:29:03;2.60;;;1.80;;
80123;SDS011;69433;48.642;9.142;2023-12-14T05:31:43;4.32;;;1.95;;
80123;SDS011;69433;48.642;9.142;2023-12-14T05:34:16;6.18;;;2.30;;
80123;SDS011;69433;48.642;9.142;2023-12-14T05:36:55;5.13;;;1.90;;
80123;SDS011;69433;48.642;9.142;2023-12-14T05:41:49;4.72;;;1.80;;
80123;SDS011;69433;48.642;9.142;2023-12-14T05:44:15;4.07;;;1.80;;
80123;SDS011;69433;48.642;9.142;2023-12-14T05:46:40;3.80;;;1.70;;
80123;SDS011;69433;48.642;9.142;2023-12-14T05:49:07;3.85;;;1.80;;
80123;SDS011;69433;48.642;9.142;2023-12-14T05:51:32;2.65;;;1.60;;
80123;SDS011;69433;48.642;9.142;2023-12-14T05:59:40;3.88;;;1.70;;
80123;SDS011;69433;48.642;9.142;2023-12-14T06:02:10;5.53;;;2.00;;
80123;SDS011;69433;48.642;9.142;2023-12-14T06:04:35;4.18;;;1.75;;
80123;SDS011;69433;48.642;9.142;2023-12-14T06:07:01;3.47;;;1.67;;
80123;SDS011;69433;48.642;9.142;2023-12-14T06:12:27;4.15;;;1.85;;
80123;SDS011;69433;48.642;9.142;2023-12-14T06:15:03;2.65;;;1.63;;
80123;SDS011;69433;48.642;9.142;2023-12-14T06:17:29;2.63;;;1.70;;
80123;SDS011;69433;48.642;9.142;2023-12-14T06:20:11;4.20;;;1.90;;
80123;SDS011;69433;48.642;9.142;2023-12-14T06:31:30;4.45;;;1.98;;
80123;SDS011;69433;48.642;9.142;2023-12-14T06:33:57;3.45;;;1.77;;
80123;SDS011;69433;48.642;9.142;2023-12-14T06:36:31;4.75;;;1.92;;
80123;SDS011;69433;48.642;9.142;2023-12-14T06:38:58;3.65;;;1.90;;
80123;SDS011;69433;48.642;9.142;2023-12-14T06:41:24;3.67;;;1.65;;
80123;SDS011;69433;48.642;9.142;2023-12-14T06:43:57;2.70;;;1.77;;
80123;SDS011;69433;48.642;9.142;2023-12-14T06:46:22;3.30;;;1.80;;
80123;SDS011;69433;48.642;9.142;2023-12-14T06:48:47;5.38;;;1.95;;
80123;SDS011;69433;48.642;9.142;2023-12-14T06:54:14;2.80;;;1.80;;
80123;SDS011;69433;48.642;9.142;2023-12-14T06:59:39;5.82;;;1.90;;
80123;SDS011;69433;48.642;9.142;2023-12-14T07:02:04;8.43;;;2.55;;
80123;SDS011;69433;48.642;9.142;2023-12-14T07:07:49;3.17;;;1.83;;
80123;SDS011;69433;48.642;9.142;2023-12-14T07:13:46;2.53;;;1.60;;
80123;SDS011;69433;48.642;9.142;2023-12-14T07:16:24;1.92;;;1.50;;
80123;SDS011;69433;48.642;9.142;2023-12-14T07:22:01;2.78;;;1.50;;
80123;SDS011;69433;48.642;9.142;2023-12-14T07:24:29;2.88;;;1.50;;
80123;SDS011;69433;48.642;9.142;2023-12-14T07:27:01;2.13;;;1.42;;
80123;SDS011;69433;48.642;9.142;2023-12-14T07:32:18;3.92;;;1.70;;
80123;SDS011;69433;48.642;9.142;2023-12-14T07:34:46;2.67;;;1.70;;
80123;SDS011;69433;48.642;9.142;2023-12-14T07:37:29;2.30;;;1.80;;
80123;SDS011;69433;48.642;9.142;2023-12-14T07:40:08;2.83;;;1.50;;
80123;SDS011;69433;48.642;9.142;2023-12-14T07:42:34;2.95;;;1.55;;
80123;SDS011;69433;48.642;9.142;2023-12-14T07:44:59;4.00;;;1.50;;
80123;SDS011;69433;48.642;9.142;2023-12-14T07:47:42;7.03;;;1.60;;
80123;SDS011;69433;48.642;9.142;2023-12-14T07:52:33;2.72;;;1.60;;
80123;SDS011;69433;48.642;9.142;2023-12-14T07:55:07;2.15;;;1.58;;
80123;SDS011;69433;48.642;9.142;2023-12-14T07:57:32;2.45;;;1.70;;
80123;SDS011;69433;48.642;9.142;2023-12-14T08:07:58;3.27;;;1.70;;
80123;SDS011;69433;48.642;9.142;2023-12-14T08:13:23;2.40;;;1.60;;
80123;SDS011;69433;48.642;9.142;2023-12-14T08:16:03;2.90;;;1.80;;
80123;SDS011;69433;48.642;9.142;2023-12-14T08:21:16;2.72;;;1.65;;
80123;SDS011;69433;48.642;9.142;2023-12-14T08:23:43;2.65;;;1.70;;
80123;SDS011;69433;48.642;9.142;2023-12-14T08:26:13;2.50;;;1.60;;
80123;SDS011;69433;48.642;9.142;2023-12-14T08:31:26;2.30;;;1.55;;
80123;SDS011;69433;48.642;9.142;2023-12-14T08:34:01;2.88;;;1.65;;
80123;SDS011;69433;48.642;9.142;2023-12-14T08:36:27;2.92;;;1.58;;
80123;SDS011;69433;48.642;9.142;2023-12-14T08:38:59;3.70;;;1.58;;
80123;SDS011;69433;48.642;9.142;2023-12-14T08:41:35;4.00;;;1.70;;
80123;SDS011;69433;48.642;9.142;2023-12-14T08:44:00;3.63;;;1.70;;
80123;SDS011;69433;48.642;9.142;2023-12-14T08:46:25;4.50;;;1.75;;
80123;SDS011;69433;48.642;9.142;2023-12-14T08:49:01;3.78;;;1.75;;
80123;SDS011;69433;48.642;9.142;2023-12-14T08:51:26;3.13;;;1.90;;
80123;SDS011;69433;48.642;9.142;2023-12-14T08:53:51;6.50;;;1.60;;
80123;SDS011;69433;48.642;9.142;2023-12-14T08:56:28;5.30;;;2.08;;
80123;SDS011;69433;48.642;9.142;2023-12-14T09:01:36;5.18;;;1.70;;
80123;SDS011;69433;48.642;9.142;2023-12-14T09:15:25;5.05;;;2.00;;
80123;SDS011;69433;48.642;9.142;2023-12-14T09:17:50;3.58;;;1.73;;
80123;SDS011;69433;48.642;9.142;2023-12-14T09:23:19;3.60;;;1.75;;
80123;SDS011;69433;48.642;9.142;2023-12-14T09:25:45;6.03;;;1.95;;
80123;SDS011;69433;48.642;9.142;2023-12-14T09:28:10;4.10;;;1.83;;
80123;SDS011;69433;48.642;9.142;2023-12-14T09:30:52;2.95;;;1.80;;
80123;SDS011;69433;48.642;9.142;2023-12-14T09:38:56;5.93;;;1.90;;
80123;SDS011;69433;48.642;9.142;2023-12-14T09:44:19;3.83;;;1.83;;
80123;SDS011;69433;48.642;9.142;2023-12-14T09:49:43;3.78;;;1.80;;
80123;SDS011;69433;48.642;9.142;2023-12-14T09:52:18;4.20;;;1.75;;
80123;SDS011;69433;48.642;9.142;2023-12-14T09:54:43;3.03;;;1.80;;
80123;SDS011;69433;48.642;9.142;2023-12-14T09:57:09;6.32;;;1.73;;
80123;SDS011;69433;48.642;9.142;2023-12-14T09:59:34;3.17;;;2.10;;
80123;SDS011;69433;48.642;9.142;2023-12-14T10:10:35;3.72;;;1.70;;
80123;SDS011;69433;48.642;9.142;2023-12-14T10:18:24;3.13;;;1.75;;
80123;SDS011;69433;48.642;9.142;2023-12-14T10:20:50;5.22;;;1.75;;
80123;SDS011;69433;48.642;9.142;2023-12-14T10:23:21;6.60;;;1.77;;
80123;SDS011;69433;48.642;9.142;2023-12-14T10:31:10;6.65;;;1.90;;
80123;SDS011;69433;48.642;9.142;2023-12-14T10:33:51;5.10;;;1.70;;
80123;SDS011;69433;48.642;9.142;2023-12-14T10:36:27;4.32;;;1.73;;
80123;SDS011;69433;48.642;9.142;2023-12-14T10:41:41;3.63;;;1.50;;
80123;SDS011;69433;48.642;9.142;2023-12-14T10:53:01;3.90;;;1.70;;
80123;SDS011;69433;48.642;9.142;2023-12-14T10:55:37;5.03;;;2.10;;
80123;SDS011;69433;48.642;9.142;2023-12-14T10:58:07;5.80;;;3.47;;
80123;SDS011;69433;48.642;9.142;2023-12-14T11:00:33;18.23;;;7.25;;
80123;SDS011;69433;48.642;9.142;2023-12-14T11:03:13;21.55;;;7.13;;
80123;SDS011;69433;48.642;9.142;2023-12-14T11:05:45;17.23;;;7.22;;
80123;SDS011;69433;48.642;9.142;2023-12-14T11:08:10;18.38;;;5.60;;
80123;SDS011;69433;48.642;9.142;2023-12-14T11:16:50;18.15;;;5.25;;
80123;SDS011;69433;48.642;9.142;2023-12-14T11:19:25;17.15;;;5.20;;
80123;SDS011;69433;48.642;9.142;2023-12-14T11:24:53;13.77;;;4.63;;
80123;SDS011;69433;48.642;9.142;2023-12-14T11:27:32;11.95;;;4.30;;
80123;SDS011;69433;48.642;9.142;2023-12-14T11:33:01;11.43;;;4.20;;
80123;SDS011;69433;48.642;9.142;2023-12-14T11:38:25;11.00;;;3.40;;
80123;SDS011;69433;48.642;9.142;2023-12-14T11:40:50;10.77;;;3.30;;
80123;SDS011;69433;48.642;9.142;2023-12-14T11:43:38;8.02;;;3.30;;
80123;SDS011;69433;48.642;9.142;2023-12-14T11:46:12;9.80;;;3.60;;
80123;SDS011;69433;48.642;9.142;2023-12-14T11:54:16;10.68;;;3.28;;
80123;SDS011;69433;48.642;9.142;2023-12-14T12:02:28;6.50;;;2.40;;
80123;SDS011;69433;48.642;9.142;2023-12-14T12:05:03;8.30;;;2.97;;
80123;SDS011;69433;48.642;9.142;2023-12-14T12:10:09;12.63;;;3.15;;
80123;SDS011;69433;48.642;9.142;2023-12-14T12:12:58;6.47;;;3.72;;
80123;SDS011;69433;48.642;9.142;2023-12-14T12:15:28;18.30;;;9.10;;
80123;SDS011;69433;48.642;9.142;2023-12-14T12:17:53;15.85;;;8.60;;
80123;SDS011;69433;48.642;9.142;2023-12-14T12:20:34;18.98;;;10.65;;
80123;SDS011;69433;48.642;9.142;2023-12-14T12:23:07;14.23;;;8.02;;
80123;SDS011;69433;48.642;9.142;2023-12-14T12:25:32;13.05;;;7.85;;
80123;SDS011;69433;48.642;9.142;2023-12-14T12:27:58;14.95;;;7.25;;
80123;SDS011;69433;48.642;9.142;2023-12-14T12:30:32;14.82;;;8.48;;
80123;SDS011;69433;48.642;9.142;2023-12-14T12:35:40;12.18;;;6.70;;
80123;SDS011;69433;48.642;9.142;2023-12-14T12:38:16;11.60;;;6.28;;
80123;SDS011;69433;48.642;9.142;2023-12-14T12:43:25;13.07;;;5.75;;
80123;SDS011;69433;48.642;9.142;2023-12-14T12:51:53;10.75;;;5.05;;
80123;SDS011;69433;48.642;9.142;2023-12-14T12:54:22;10.07;;;5.13;;
80123;SDS011;69433;48.642;9.142;2023-12-14T12:56:48;9.38;;;5.13;;
80123;SDS011;69433;48.642;9.142;2023-12-14T13:02:26;7.95;;;4.88;;
80123;SDS011;69433;48.642;9.142;2023-12-14T13:04:52;8.05;;;4.25;;
80123;SDS011;69433;48.642;9.142;2023-12-14T13:07:18;8.93;;;3.95;;
80123;SDS011;69433;48.642;9.142;2023-12-14T13:09:43;7.35;;;3.90;;
80123;SDS011;69433;48.642;9.142;2023-12-14T13:12:11;6.75;;;3.53;;
80123;SDS011;69433;48.642;9.142;2023-12-14T13:14:46;5.93;;;3.80;;
80123;SDS011;69433;48.642;9.142;2023-12-14T13:20:03;8.80;;;3.28;;
80123;SDS011;69433;48.642;9.142;2023-12-14T13:22:39;5.35;;;3.22;;
80123;SDS011;69433;48.642;9.142;2023-12-14T13:25:14;6.32;;;3.25;;
80123;SDS011;69433;48.642;9.142;2023-12-14T13:27:40;6.35;;;3.50;;
80123;SDS011;69433;48.642;9.142;2023-12-14T13:30:06;5.85;;;3.28;;
80123;SDS011;69433;48.642;9.142;2023-12-14T13:35:20;5.90;;;3.00;;
80123;SDS011;69433;48.642;9.142;2023-12-14T13:37:47;6.85;;;3.45;;
80123;SDS011;69433;48.642;9.142;2023-12-14T13:40:19;5.78;;;3.15;;
80123;SDS011;69433;48.642;9.142;2023-12-14T13:42:57;7.22;;;2.85;;
80123;SDS011;69433;48.642;9.142;2023-12-14T13:45:28;5.18;;;2.92;;
80123;SDS011;69433;48.642;9.142;2023-12-14T13:47:55;6.45;;;3.25;;
80123;SDS011;69433;48.642;9.142;2023-12-14T13:50:27;5.95;;;2.70;;
80123;SDS011;69433;48.642;9.142;2023-12-14T13:52:52;4.35;;;2.95;;
80123;SDS011;69433;48.642;9.142;2023-12-14T13:55:23;5.57;;;3.45;;
80123;SDS011;69433;48.642;9.142;2023-12-14T14:00:26;42.72;;;24.88;;
80123;SDS011;69433;48.642;9.142;2023-12-14T14:03:01;70.47;;;42.50;;
80123;SDS011;69433;48.642;9.142;2023-12-14T14:07:54;85.35;;;49.75;;
80123;SDS011;69433;48.642;9.142;2023-12-14T14:10:19;82.32;;;49.13;;
80123;SDS011;69433;48.642;9.142;2023-12-14T14:12:53;81.13;;;48.47;;
80123;SDS011;69433;48.642;9.142;2023-12-14T14:15:26;81.65;;;48.90;;
80123;SDS011;69433;48.642;9.142;2023-12-14T14:18:01;78.80;;;48.13;;
80123;SDS011;69433;48.642;9.142;2023-12-14T14:20:39;79.53;;;48.00;;
80123;SDS011;69433;48.642;9.142;2023-12-14T14:25:40;76.20;;;47.08;;
80123;SDS011;69433;48.642;9.142;2023-12-14T14:28:14;76.25;;;46.45;;
80123;SDS011;69433;48.642;9.142;2023-12-14T14:30:51;75.22;;;45.97;;
80123;SDS011;69433;48.642;9.142;2023-12-14T14:33:24;73.50;;;44.72;;
80123;SDS011;69433;48.642;9.142;2023-12-14T14:36:02;70.72;;;43.90;;
80123;SDS011;69433;48.642;9.142;2023-12-14T14:38:33;72.03;;;44.78;;
80123;SDS011;69433;48.642;9.142;2023-12-14T14:41:02;70.68;;;44.03;;
80123;SDS011;69433;48.642;9.142;2023-12-14T14:43:28;67.65;;;43.45;;
80123;SDS011;69433;48.642;9.142;2023-12-14T14:46:02;64.63;;;40.83;;
80123;SDS011;69433;48.642;9.142;2023-12-14T14:53:46;63.05;;;40.33;;
80123;SDS011;69433;48.642;9.142;2023-12-14T14:56:14;63.42;;;40.22;;
80123;SDS011;69433;48.642;9.142;2023-12-14T14:58:48;62.58;;;39.20;;
80123;SDS011;69433;48.642;9.142;2023-12-14T15:01:14;57.83;;;39.15;;
80123;SDS011;69433;48.642;9.142;2023-12-14T15:03:53;58.88;;;37.67;;
80123;SDS011;69433;48.642;9.142;2023-12-14T15:06:19;57.10;;;35.50;;
80123;SDS011;69433;48.642;9.142;2023-12-14T15:08:54;54.95;;;36.13;;
80123;SDS011;69433;48.642;9.142;2023-12-14T15:11:22;56.15;;;35.80;;
80123;SDS011;69433;48.642;9.142;2023-12-14T15:19:32;51.17;;;33.30;;
80123;SDS011;69433;48.642;9.142;2023-12-14T15:21:58;52.67;;;33.35;;
80123;SDS011;69433;48.642;9.142;2023-12-14T15:27:14;49.22;;;33.47;;
80123;SDS011;69433;48.642;9.142;2023-12-14T15:29:55;52.22;;;33.17;;
80123;SDS011;69433;48.642;9.142;2023-12-14T15:35:21;48.10;;;30.60;;
80123;SDS011;69433;48.642;9.142;2023-12-14T15:37:47;47.47;;;31.20;;
80123;SDS011;69433;48.642;9.142;2023-12-14T15:40:13;44.78;;;30.15;;
80123;SDS011;69433;48.642;9.142;2023-12-14T15:42:44;44.88;;;30.45;;
80123;SDS011;69433;48.642;9.142;2023-12-14T15:47:42;43.53;;;28.80;;
80123;SDS011;69433;48.642;9.142;2023-12-14T15:50:17;43.65;;;28.33;;
80123;SDS011;69433;48.642;9.142;2023-12-14T15:52:43;43.53;;;28.10;;
80123;SDS011;69433;48.642;9.142;2023-12-14T15:55:17;42.28;;;28.38;;
80123;SDS011;69433;48.642;9.142;2023-12-14T15:57:44;41.72;;;27.85;;
80123;SDS011;69433;48.642;9.142;2023-12-14T16:03:13;37.50;;;26.58;;
80123;SDS011;69433;48.642;9.142;2023-12-14T16:05:38;49.33;;;29.92;;
80123;SDS011;69433;48.642;9.142;2023-12-14T16:08:04;61.13;;;35.47;;
80123;SDS011;69433;48.642;9.142;2023-12-14T16:10:29;66.22;;;41.00;;
80123;SDS011;69433;48.642;9.142;2023-12-14T16:12:55;61.90;;;36.88;;
80123;SDS011;69433;48.642;9.142;2023-12-14T16:15:20;54.05;;;34.38;;
80123;SDS011;69433;48.642;9.142;2023-12-14T16:17:46;53.17;;;32.40;;
80123;SDS011;69433;48.642;9.142;2023-12-14T16:20:22;56.45;;;33.35;;
80123;SDS011;69433;48.642;9.142;2023-12-14T16:22:52;50.85;;;31.50;;
80123;SDS011;69433;48.642;9.142;2023-12-14T16:25:20;49.63;;;32.08;;
80123;SDS011;69433;48.642;9.142;2023-12-14T16:27:51;50.60;;;30.80;;
80123;SDS011;69433;48.642;9.142;2023-12-14T16:30:16;49.70;;;31.25;;
80123;SDS011;69433;48.642;9.142;2023-12-14T16:32:58;49.05;;;29.92;;
80123;SDS011;69433;48.642;9.142;2023-12-14T16:38:13;46.38;;;29.65;;
80123;SDS011;69433;48.642;9.142;2023-12-14T16:40:46;46.63;;;28.65;;
80123;SDS011;69433;48.642;9.142;2023-12-14T16:43:17;44.67;;;27.80;;
80123;SDS011;69433;48.642;9.142;2023-12-14T16:48:48;45.05;;;27.40;;
80123;SDS011;69433;48.642;9.142;2023-12-14T17:03:48;37.22;;;23.25;;
80123;SDS011;69433;48.642;9.142;2023-12-14T17:06:17;34.33;;;21.92;;
80123;SDS011;69433;48.642;9.142;2023-12-14T17:08:50;36.63;;;22.00;;
80123;SDS011;69433;48.642;9.142;2023-12-14T17:11:18;36.22;;;21.38;;
80123;SDS011;69433;48.642;9.142;2023-12-14T17:13:45;32.88;;;20.75;;
80123;SDS011;69433;48.642;9.142;2023-12-14T17:19:02;30.98;;;19.80;;
80123;SDS011;69433;48.642;9.142;2023-12-14T17:24:05;29.42;;;18.95;;
80123;SDS011;69433;48.642;9.142;2023-12-14T17:29:11;30.53;;;19.40;;
80123;SDS011;69433;48.642;9.142;2023-12-14T17:31:46;30.23;;;18.92;;
80123;SDS011;69433;48.642;9.142;2023-12-14T17:34:12;28.52;;;19.48;;
80123;SDS011;69433;48.642;9.142;2023-12-14T17:42:11;27.65;;;17.17;;
80123;SDS011;69433;48.642;9.142;2023-12-14T17:47:21;25.88;;;18.38;;
80123;SDS011;69433;48.642;9.142;2023-12-14T17:49:46;42.63;;;30.60;;
80123;SDS011;69433;48.642;9.142;2023-12-14T17:52:12;42.08;;;28.77;;
80123;SDS011;69433;48.642;9.142;2023-12-14T17:57:18;28.83;;;18.63;;
80123;SDS011;69433;48.642;9.142;2023-12-14T17:59:43;21.05;;;14.50;;
80123;SDS011;69433;48.642;9.142;2023-12-14T18:02:09;22.17;;;15.80;;
80123;SDS011;69433;48.642;9.142;2023-12-14T18:10:29;112.78;;;77.00;;
80123;SDS011;69433;48.642;9.142;2023-12-14T18:13:02;117.65;;;78.65;;
80123;SDS011;69433;48.642;9.142;2023-12-14T18:15:28;110.00;;;76.53;;
80123;SDS011;69433;48.642;9.142;2023-12-14T18:17:56;102.60;;;70.40;;
80123;SDS011;69433;48.642;9.142;2023-12-14T18:20:21;100.45;;;68.78;;
80123;SDS011;69433;48.642;9.142;2023-12-14T18:22:47;96.55;;;67.80;;
80123;SDS011;69433;48.642;9.142;2023-12-14T18:25:12;98.57;;;66.45;;
80123;SDS011;69433;48.642;9.142;2023-12-14T18:27:49;93.05;;;62.58;;
80123;SDS011;69433;48.642;9.142;2023-12-14T18:30:16;92.13;;;62.95;;
80123;SDS011;69433;48.642;9.142;2023-12-14T18:32:51;85.80;;;61.88;;
80123;SDS011;69433;48.642;9.142;2023-12-14T18:35:25;87.35;;;61.05;;
80123;SDS011;69433;48.642;9.142;2023-12-14T18:38:06;87.03;;;60.05;;
80123;SDS011;69433;48.642;9.142;2023-12-14T18:43:14;82.05;;;59.03;;
80123;SDS011;69433;48.642;9.142;2023-12-14T18:45:47;81.45;;;58.78;;
80123;SDS011;69433;48.642;9.142;2023-12-14T18:48:13;75.43;;;55.97;;
80123;SDS011;69433;48.642;9.142;2023-12-14T18:50:44;80.97;;;59.05;;
80123;SDS011;69433;48.642;9.142;2023-12-14T18:53:12;78.38;;;56.25;;
80123;SDS011;69433;48.642;9.142;2023-12-14T18:58:14;78.82;;;56.28;;
80123;SDS011;69433;48.642;9.142;2023-12-14T19:00:40;74.85;;;53.05;;
80123;SDS011;69433;48.642;9.142;2023-12-14T19:03:14;70.97;;;52.40;;
80123;SDS011;69433;48.642;9.142;2023-12-14T19:05:52;71.95;;;51.55;;
80123;SDS011;69433;48.642;9.142;2023-12-14T19:08:20;69.93;;;50.72;;
80123;SDS011;69433;48.642;9.142;2023-12-14T19:10:46;68.47;;;51.70;;
80123;SDS011;69433;48.642;9.142;2023-12-14T19:13:12;68.50;;;50.20;;
80123;SDS011;69433;48.642;9.142;2023-12-14T19:18:15;69.38;;;49.45;;
80123;SDS011;69433;48.642;9.142;2023-12-14T19:20:43;65.40;;;47.33;;
80123;SDS011;69433;48.642;9.142;2023-12-14T19:23:08;65.78;;;48.65;;
80123;SDS011;69433;48.642;9.142;2023-12-14T19:25:33;67.63;;;48.90;;
80123;SDS011;69433;48.642;9.142;2023-12-14T19:27:59;69.30;;;48.00;;
80123;SDS011;69433;48.642;9.142;2023-12-14T19:30:34;61.40;;;45.10;;
80123;SDS011;69433;48.642;9.142;2023-12-14T19:33:00;60.35;;;44.17;;
80123;SDS011;69433;48.642;9.142;2023-12-14T19:35:44;60.10;;;44.95;;
80123;SDS011;69433;48.642;9.142;2023-12-14T19:41:20;60.63;;;44.00;;
80123;SDS011;69433;48.642;9.142;2023-12-14T19:46:56;58.65;;;42.42;;
80123;SDS011;69433;48.642;9.142;2023-12-14T19:49:21;58.92;;;44.25;;
80123;SDS011;69433;48.642;9.142;2023-12-14T19:51:56;58.90;;;41.53;;
80123;SDS011;69433;48.642;9.142;2023-12-14T19:57:19;55.10;;;42.15;;
80123;SDS011;69433;48.642;9.142;2023-12-14T19:59:44;52.03;;;39.33;;
80123;SDS011;69433;48.642;9.142;2023-12-14T20:02:12;54.40;;;39.20;;
80123;SDS011;69433;48.642;9.142;2023-12-14T20:04:38;52.75;;;38.88;;
80123;SDS011;69433;48.642;9.142;2023-12-14T20:07:03;50.30;;;37.78;;
80123;SDS011;69433;48.642;9.142;2023-12-14T20:09:37;50.45;;;38.40;;
80123;SDS011;69433;48.642;9.142;2023-12-14T20:12:03;49.85;;;38.30;;
80123;SDS011;69433;48.642;9.142;2023-12-14T20:19:57;45.40;;;34.28;;
80123;SDS011;69433;48.642;9.142;2023-12-14T20:22:27;76.00;;;43.05;;
80123;SDS011;69433;48.642;9.142;2023-12-14T20:27:48;94.97;;;62.78;;
80123;SDS011;69433;48.642;9.142;2023-12-14T20:30:13;124.82;;;86.25;;
80123;SDS011;69433;48.642;9.142;2023-12-14T20:32:54;124.63;;;87.05;;
80123;SDS011;69433;48.642;9.142;2023-12-14T20:35:28;112.80;;;79.20;;
80123;SDS011;69433;48.642;9.142;2023-12-14T20:37:56;103.65;;;71.47;;
80123;SDS011;69433;48.642;9.142;2023-12-14T20:40:21;103.75;;;70.85;;
80123;SDS011;69433;48.642;9.142;2023-12-14T20:42:47;101.95;;;69.15;;
80123;SDS011;69433;48.642;9.142;2023-12-14T20:45:28;101.05;;;67.43;;
80123;SDS011;69433;48.642;9.142;2023-12-14T20:53:28;98.65;;;65.72;;
80123;SDS011;69433;48.642;9.142;2023-12-14T20:55:54;94.20;;;65.40;;
80123;SDS011;69433;48.642;9.142;2023-12-14T20:58:29;89.07;;;63.13;;
80123;SDS011;69433;48.642;9.142;2023-12-14T21:04:08;105.18;;;62.88;;
80123;SDS011;69433;48.642;9.142;2023-12-14T21:06:41;103.45;;;62.20;;
80123;SDS011;69433;48.642;9.142;2023-12-14T21:09:06;97.20;;;61.13;;
80123;SDS011;69433;48.642;9.142;2023-12-14T21:14:38;90.65;;;55.90;;